sensor_id;sensor_type;location;lat;lon;timestamp;temperature;humidity
2391;DHT22;22957;50.824;4.360;2023-04-08T00:02:13;12.90;99.90
2391;DHT22;22957;50.824;4.360;2023-04-08T00:04:40;12.90;99.90
2391;DHT22;22957;50.824;4.360;2023-04-08T00:07:06;12.90;99.90
2391;DHT22;22957;50.824;4.360;2023-04-08T00:09:32;13.00;99.90
2391;DHT22;22957;50.824;4.360;2023-04-08T00:11:58;13.20;99.90
2391;DHT22;22957;50.824;4.360;2023-04-08T00:14:24;13.00;99.90
2391;DHT22;22957;50.824;4.360;2023-04-08T00:16:49;13.00;99.90
2391;DHT22;22957;50.824;4.360;2023-04-08T00:19:16;12.90;99.90
2391;DHT22;22957;50.824;4.360;2023-04-08T00:21:42;12.80;99.90
2391;DHT22;22957;50.824;4.360;2023-04-08T00:24:09;12.50;99.90
2391;DHT22;22957;50.824;4.360;2023-04-08T00:26:35;11.90;99.90
2391;DHT22;22957;50.824;4.360;2023-04-08T00:29:00;11.60;99.90
2391;DHT22;22957;50.824;4.360;2023-04-08T00:31:26;11.50;99.90
2391;DHT22;22957;50.824;4.360;2023-04-08T00:33:52;12.00;99.90
2391;DHT22;22957;50.824;4.360;2023-04-08T00:36:17;12.50;99.90
2391;DHT22;22957;50.824;4.360;2023-04-08T00:38:44;12.40;99.90
2391;DHT22;22957;50.824;4.360;2023-04-08T00:41:09;12.80;99.90
2391;DHT22;22957;50.824;4.360;2023-04-08T00:43:35;12.50;99.90
2391;DHT22;22957;50.824;4.360;2023-04-08T00:46:01;12.60;99.90
2391;DHT22;22957;50.824;4.360;2023-04-08T00:48:26;12.90;99.90
2391;DHT22;22957;50.824;4.360;2023-04-08T00:50:52;12.50;99.90
2391;DHT22;22957;50.824;4.360;2023-04-08T00:53:18;12.60;99.90
2391;DHT22;22957;50.824;4.360;2023-04-08T00:55:44;12.30;99.90
2391;DHT22;22957;50.824;4.360;2023-04-08T00:58:11;12.70;99.90
2391;DHT22;22957;50.824;4.360;2023-04-08T01:00:40;12.50;99.90
2391;DHT22;22957;50.824;4.360;2023-04-08T01:03:19;12.00;99.90
2391;DHT22;22957;50.824;4.360;2023-04-08T01:06:06;12.80;99.90
2391;DHT22;22957;50.824;4.360;2023-04-08T01:08:35;12.60;99.90
2391;DHT22;22957;50.824;4.360;2023-04-08T01:11:03;12.80;99.90
2391;DHT22;22957;50.824;4.360;2023-04-08T01:13:33;12.60;99.90
2391;DHT22;22957;50.824;4.360;2023-04-08T01:16:00;12.70;99.90
2391;DHT22;22957;50.824;4.360;2023-04-08T01:18:26;12.70;99.90
2391;DHT22;22957;50.824;4.360;2023-04-08T01:20:53;12.20;99.90
2391;DHT22;22957;50.824;4.360;2023-04-08T01:23:51;12.10;99.90
2391;DHT22;22957;50.824;4.360;2023-04-08T01:26:22;12.40;99.90
2391;DHT22;22957;50.824;4.360;2023-04-08T01:28:53;12.20;99.90
2391;DHT22;22957;50.824;4.360;2023-04-08T01:31:23;12.50;99.90
2391;DHT22;22957;50.824;4.360;2023-04-08T01:33:50;12.70;99.90
2391;DHT22;22957;50.824;4.360;2023-04-08T01:36:17;12.50;99.90
2391;DHT22;22957;50.824;4.360;2023-04-08T01:38:45;12.30;99.90
2391;DHT22;22957;50.824;4.360;2023-04-08T01:41:12;12.80;99.90
2391;DHT22;22957;50.824;4.360;2023-04-08T01:43:39;12.50;99.90
2391;DHT22;22957;50.824;4.360;2023-04-08T01:46:06;12.40;99.90
2391;DHT22;22957;50.824;4.360;2023-04-08T01:48:33;12.50;99.90
2391;DHT22;22957;50.824;4.360;2023-04-08T01:51:00;12.70;99.90
2391;DHT22;22957;50.824;4.360;2023-04-08T01:53:26;12.40;99.90
2391;DHT22;22957;50.824;4.360;2023-04-08T01:55:57;12.50;99.90
2391;DHT22;22957;50.824;4.360;2023-04-08T01:58:30;12.30;99.90
2391;DHT22;22957;50.824;4.360;2023-04-08T02:00:58;12.40;99.90
2391;DHT22;22957;50.824;4.360;2023-04-08T02:03:25;12.50;99.90
2391;DHT22;22957;50.824;4.360;2023-04-08T02:05:53;12.30;99.90
2391;DHT22;22957;50.824;4.360;2023-04-08T02:08:18;12.20;99.90
2391;DHT22;22957;50.824;4.360;2023-04-08T02:10:44;12.70;99.90
2391;DHT22;22957;50.824;4.360;2023-04-08T02:13:10;12.80;99.90
2391;DHT22;22957;50.824;4.360;2023-04-08T02:15:37;12.70;99.90
2391;DHT22;22957;50.824;4.360;2023-04-08T02:18:18;12.40;99.90
2391;DHT22;22957;50.824;4.360;2023-04-08T02:20:51;12.40;99.90
2391;DHT22;22957;50.824;4.360;2023-04-08T02:23:25;12.40;99.90
2391;DHT22;22957;50.824;4.360;2023-04-08T02:25:54;12.80;99.90
2391;DHT22;22957;50.824;4.360;2023-04-08T02:28:21;12.60;99.90
2391;DHT22;22957;50.824;4.360;2023-04-08T02:30:50;12.80;99.90
2391;DHT22;22957;50.824;4.360;2023-04-08T02:33:21;12.80;99.90
2391;DHT22;22957;50.824;4.360;2023-04-08T02:35:49;12.60;99.90
2391;DHT22;22957;50.824;4.360;2023-04-08T02:38:16;12.00;99.90
2391;DHT22;22957;50.824;4.360;2023-04-08T02:40:43;12.30;99.90
2391;DHT22;22957;50.824;4.360;2023-04-08T02:43:08;12.20;99.90
2391;DHT22;22957;50.824;4.360;2023-04-08T02:45:40;12.40;99.90
2391;DHT22;22957;50.824;4.360;2023-04-08T02:48:06;11.90;99.90
2391;DHT22;22957;50.824;4.360;2023-04-08T02:50:34;11.90;99.90
2391;DHT22;22957;50.824;4.360;2023-04-08T02:53:00;12.40;99.90
2391;DHT22;22957;50.824;4.360;2023-04-08T02:55:27;12.60;99.90
2391;DHT22;22957;50.824;4.360;2023-04-08T02:57:54;12.70;99.90
2391;DHT22;22957;50.824;4.360;2023-04-08T03:00:20;12.50;99.90
2391;DHT22;22957;50.824;4.360;2023-04-08T03:02:47;12.70;99.90
2391;DHT22;22957;50.824;4.360;2023-04-08T03:05:12;11.90;99.90
2391;DHT22;22957;50.824;4.360;2023-04-08T03:07:38;12.00;99.90
2391;DHT22;22957;50.824;4.360;2023-04-08T03:10:04;11.90;99.90
2391;DHT22;22957;50.824;4.360;2023-04-08T03:12:30;12.50;99.90
2391;DHT22;22957;50.824;4.360;2023-04-08T03:14:57;12.20;99.90
2391;DHT22;22957;50.824;4.360;2023-04-08T03:17:23;12.20;99.90
2391;DHT22;22957;50.824;4.360;2023-04-08T03:19:48;12.10;99.90
2391;DHT22;22957;50.824;4.360;2023-04-08T03:22:14;12.00;99.90
2391;DHT22;22957;50.824;4.360;2023-04-08T03:24:40;12.60;99.90
2391;DHT22;22957;50.824;4.360;2023-04-08T03:27:06;12.70;99.90
2391;DHT22;22957;50.824;4.360;2023-04-08T03:29:32;12.70;99.90
2391;DHT22;22957;50.824;4.360;2023-04-08T03:31:58;12.50;99.90
2391;DHT22;22957;50.824;4.360;2023-04-08T03:34:25;12.00;99.90
2391;DHT22;22957;50.824;4.360;2023-04-08T03:36:50;11.80;99.90
2391;DHT22;22957;50.824;4.360;2023-04-08T03:39:16;11.80;99.90
2391;DHT22;22957;50.824;4.360;2023-04-08T03:41:42;11.50;99.90
2391;DHT22;22957;50.824;4.360;2023-04-08T03:44:09;11.60;99.90
2391;DHT22;22957;50.824;4.360;2023-04-08T03:46:35;11.80;99.90
2391;DHT22;22957;50.824;4.360;2023-04-08T03:49:00;11.40;99.90
2391;DHT22;22957;50.824;4.360;2023-04-08T03:51:26;11.40;99.90
2391;DHT22;22957;50.824;4.360;2023-04-08T03:53:53;12.10;99.90
2391;DHT22;22957;50.824;4.360;2023-04-08T03:56:20;11.80;99.90
2391;DHT22;22957;50.824;4.360;2023-04-08T03:58:46;12.30;99.90
2391;DHT22;22957;50.824;4.360;2023-04-08T04:01:11;12.20;99.90
2391;DHT22;22957;50.824;4.360;2023-04-08T04:03:37;12.10;99.90
2391;DHT22;22957;50.824;4.360;2023-04-08T04:06:02;12.50;99.90
2391;DHT22;22957;50.824;4.360;2023-04-08T04:08:28;12.20;99.90
2391;DHT22;22957;50.824;4.360;2023-04-08T04:10:54;12.30;99.90
2391;DHT22;22957;50.824;4.360;2023-04-08T04:13:19;12.40;99.90
2391;DHT22;22957;50.824;4.360;2023-04-08T04:15:46;12.40;99.90
2391;DHT22;22957;50.824;4.360;2023-04-08T04:18:12;12.40;99.90
2391;DHT22;22957;50.824;4.360;2023-04-08T04:20:41;12.40;99.90
2391;DHT22;22957;50.824;4.360;2023-04-08T04:23:08;12.20;99.90
2391;DHT22;22957;50.824;4.360;2023-04-08T04:25:33;12.70;99.90
2391;DHT22;22957;50.824;4.360;2023-04-08T04:27:59;12.00;99.90
2391;DHT22;22957;50.824;4.360;2023-04-08T04:30:27;12.30;99.90
2391;DHT22;22957;50.824;4.360;2023-04-08T04:32:53;12.10;99.90
2391;DHT22;22957;50.824;4.360;2023-04-08T04:35:18;11.70;99.90
2391;DHT22;22957;50.824;4.360;2023-04-08T04:37:44;11.80;99.90
2391;DHT22;22957;50.824;4.360;2023-04-08T04:40:10;11.90;99.90
2391;DHT22;22957;50.824;4.360;2023-04-08T04:42:36;12.00;99.90
2391;DHT22;22957;50.824;4.360;2023-04-08T04:45:02;12.40;99.90
2391;DHT22;22957;50.824;4.360;2023-04-08T04:47:28;12.30;99.90
2391;DHT22;22957;50.824;4.360;2023-04-08T04:49:57;12.30;99.90
2391;DHT22;22957;50.824;4.360;2023-04-08T04:52:22;12.30;99.90
2391;DHT22;22957;50.824;4.360;2023-04-08T04:54:48;12.20;99.90
2391;DHT22;22957;50.824;4.360;2023-04-08T04:57:15;11.70;99.90
2391;DHT22;22957;50.824;4.360;2023-04-08T04:59:40;11.90;99.90
2391;DHT22;22957;50.824;4.360;2023-04-08T05:02:06;12.10;99.90
2391;DHT22;22957;50.824;4.360;2023-04-08T05:04:31;12.10;99.90
2391;DHT22;22957;50.824;4.360;2023-04-08T05:06:58;12.20;99.90
2391;DHT22;22957;50.824;4.360;2023-04-08T05:09:24;12.10;99.90
2391;DHT22;22957;50.824;4.360;2023-04-08T05:11:50;11.80;99.90
2391;DHT22;22957;50.824;4.360;2023-04-08T05:14:16;12.00;99.90
2391;DHT22;22957;50.824;4.360;2023-04-08T05:16:41;12.00;99.90
2391;DHT22;22957;50.824;4.360;2023-04-08T05:19:10;11.70;99.90
2391;DHT22;22957;50.824;4.360;2023-04-08T05:21:36;12.10;99.90
2391;DHT22;22957;50.824;4.360;2023-04-08T05:24:01;12.00;99.90
2391;DHT22;22957;50.824;4.360;2023-04-08T05:26:27;12.20;99.90
2391;DHT22;22957;50.824;4.360;2023-04-08T05:28:52;12.00;99.90
2391;DHT22;22957;50.824;4.360;2023-04-08T05:31:19;12.30;99.90
2391;DHT22;22957;50.824;4.360;2023-04-08T05:33:46;12.00;99.90
2391;DHT22;22957;50.824;4.360;2023-04-08T05:36:12;12.50;99.90
2391;DHT22;22957;50.824;4.360;2023-04-08T05:38:40;12.40;99.90
2391;DHT22;22957;50.824;4.360;2023-04-08T05:41:10;12.60;99.90
2391;DHT22;22957;50.824;4.360;2023-04-08T05:43:35;12.70;99.90
2391;DHT22;22957;50.824;4.360;2023-04-08T05:46:08;12.30;99.90
2391;DHT22;22957;50.824;4.360;2023-04-08T05:48:35;12.10;99.90
2391;DHT22;22957;50.824;4.360;2023-04-08T05:51:01;11.90;99.90
2391;DHT22;22957;50.824;4.360;2023-04-08T05:53:27;11.40;99.90
2391;DHT22;22957;50.824;4.360;2023-04-08T05:55:52;11.10;99.90
2391;DHT22;22957;50.824;4.360;2023-04-08T05:58:18;11.20;99.90
2391;DHT22;22957;50.824;4.360;2023-04-08T06:00:43;11.80;99.90
2391;DHT22;22957;50.824;4.360;2023-04-08T06:03:09;12.10;99.90
2391;DHT22;22957;50.824;4.360;2023-04-08T06:05:35;12.50;99.90
2391;DHT22;22957;50.824;4.360;2023-04-08T06:08:01;12.00;99.90
2391;DHT22;22957;50.824;4.360;2023-04-08T06:10:27;12.60;99.90
2391;DHT22;22957;50.824;4.360;2023-04-08T06:12:52;12.50;99.90
2391;DHT22;22957;50.824;4.360;2023-04-08T06:15:18;12.30;99.90
2391;DHT22;22957;50.824;4.360;2023-04-08T06:17:43;12.40;99.90
2391;DHT22;22957;50.824;4.360;2023-04-08T06:20:09;12.00;99.90
2391;DHT22;22957;50.824;4.360;2023-04-08T06:22:35;12.00;99.90
2391;DHT22;22957;50.824;4.360;2023-04-08T06:25:01;12.50;99.90
2391;DHT22;22957;50.824;4.360;2023-04-08T06:27:28;12.40;99.90
2391;DHT22;22957;50.824;4.360;2023-04-08T06:29:53;12.80;99.90
2391;DHT22;22957;50.824;4.360;2023-04-08T06:32:21;12.90;99.90
2391;DHT22;22957;50.824;4.360;2023-04-08T06:34:47;12.90;99.90
2391;DHT22;22957;50.824;4.360;2023-04-08T06:37:13;13.30;99.90
2391;DHT22;22957;50.824;4.360;2023-04-08T06:39:39;13.10;99.90
2391;DHT22;22957;50.824;4.360;2023-04-08T06:42:05;13.10;99.90
2391;DHT22;22957;50.824;4.360;2023-04-08T06:44:32;12.80;99.90
2391;DHT22;22957;50.824;4.360;2023-04-08T06:47:01;13.20;99.90
2391;DHT22;22957;50.824;4.360;2023-04-08T06:49:26;13.20;99.90
2391;DHT22;22957;50.824;4.360;2023-04-08T06:51:55;13.00;99.90
2391;DHT22;22957;50.824;4.360;2023-04-08T06:54:22;13.20;99.90
2391;DHT22;22957;50.824;4.360;2023-04-08T06:56:49;13.20;99.90
2391;DHT22;22957;50.824;4.360;2023-04-08T06:59:16;13.30;99.90
2391;DHT22;22957;50.824;4.360;2023-04-08T07:01:43;13.80;99.90
2391;DHT22;22957;50.824;4.360;2023-04-08T07:04:10;13.60;99.90
2391;DHT22;22957;50.824;4.360;2023-04-08T07:06:36;13.70;99.90
2391;DHT22;22957;50.824;4.360;2023-04-08T07:09:02;13.30;99.90
2391;DHT22;22957;50.824;4.360;2023-04-08T07:11:28;13.50;99.90
2391;DHT22;22957;50.824;4.360;2023-04-08T07:14:03;13.50;99.90
2391;DHT22;22957;50.824;4.360;2023-04-08T07:16:30;13.90;99.90
2391;DHT22;22957;50.824;4.360;2023-04-08T07:18:56;14.40;99.90
2391;DHT22;22957;50.824;4.360;2023-04-08T07:21:23;14.00;99.90
2391;DHT22;22957;50.824;4.360;2023-04-08T07:23:49;13.90;99.90
2391;DHT22;22957;50.824;4.360;2023-04-08T07:26:15;14.00;99.90
2391;DHT22;22957;50.824;4.360;2023-04-08T07:28:41;14.20;99.90
2391;DHT22;22957;50.824;4.360;2023-04-08T07:31:17;14.00;99.90
2391;DHT22;22957;50.824;4.360;2023-04-08T07:33:43;14.40;99.90
2391;DHT22;22957;50.824;4.360;2023-04-08T07:36:11;14.60;99.90
2391;DHT22;22957;50.824;4.360;2023-04-08T07:38:37;14.70;99.90
2391;DHT22;22957;50.824;4.360;2023-04-08T07:41:03;14.70;99.90
2391;DHT22;22957;50.824;4.360;2023-04-08T07:43:30;15.00;99.90
2391;DHT22;22957;50.824;4.360;2023-04-08T07:46:00;15.00;99.90
2391;DHT22;22957;50.824;4.360;2023-04-08T07:48:30;14.70;99.90
2391;DHT22;22957;50.824;4.360;2023-04-08T07:50:56;15.00;99.90
2391;DHT22;22957;50.824;4.360;2023-04-08T07:53:23;15.40;99.90
2391;DHT22;22957;50.824;4.360;2023-04-08T07:55:50;15.80;99.90
2391;DHT22;22957;50.824;4.360;2023-04-08T07:58:17;15.00;99.90
2391;DHT22;22957;50.824;4.360;2023-04-08T08:00:42;16.20;99.90
2391;DHT22;22957;50.824;4.360;2023-04-08T08:03:08;16.40;99.90
2391;DHT22;22957;50.824;4.360;2023-04-08T08:05:35;15.70;99.90
2391;DHT22;22957;50.824;4.360;2023-04-08T08:08:01;15.60;99.90
2391;DHT22;22957;50.824;4.360;2023-04-08T08:10:27;16.00;99.90
2391;DHT22;22957;50.824;4.360;2023-04-08T08:12:52;16.00;99.90
2391;DHT22;22957;50.824;4.360;2023-04-08T08:15:19;15.90;99.90
2391;DHT22;22957;50.824;4.360;2023-04-08T08:17:45;16.40;99.90
2391;DHT22;22957;50.824;4.360;2023-04-08T08:20:13;16.10;99.90
2391;DHT22;22957;50.824;4.360;2023-04-08T08:22:39;16.20;99.90
2391;DHT22;22957;50.824;4.360;2023-04-08T08:25:05;15.00;99.90
2391;DHT22;22957;50.824;4.360;2023-04-08T08:27:32;15.30;99.90
2391;DHT22;22957;50.824;4.360;2023-04-08T08:29:59;15.30;99.90
2391;DHT22;22957;50.824;4.360;2023-04-08T08:32:25;15.10;99.90
2391;DHT22;22957;50.824;4.360;2023-04-08T08:34:51;14.60;99.90
2391;DHT22;22957;50.824;4.360;2023-04-08T08:37:17;15.10;99.90
2391;DHT22;22957;50.824;4.360;2023-04-08T08:39:43;15.20;99.90
2391;DHT22;22957;50.824;4.360;2023-04-08T08:42:21;15.10;99.90
2391;DHT22;22957;50.824;4.360;2023-04-08T08:44:48;14.60;99.90
2391;DHT22;22957;50.824;4.360;2023-04-08T08:47:14;14.70;99.90
2391;DHT22;22957;50.824;4.360;2023-04-08T08:49:41;14.50;99.90
2391;DHT22;22957;50.824;4.360;2023-04-08T08:52:07;14.70;99.90
2391;DHT22;22957;50.824;4.360;2023-04-08T08:54:34;14.60;99.90
2391;DHT22;22957;50.824;4.360;2023-04-08T08:57:03;14.60;99.90
2391;DHT22;22957;50.824;4.360;2023-04-08T08:59:28;14.40;99.90
2391;DHT22;22957;50.824;4.360;2023-04-08T09:01:54;13.40;99.90
2391;DHT22;22957;50.824;4.360;2023-04-08T09:04:21;13.60;99.90
2391;DHT22;22957;50.824;4.360;2023-04-08T09:07:08;14.30;99.90
2391;DHT22;22957;50.824;4.360;2023-04-08T09:09:50;14.50;99.90
2391;DHT22;22957;50.824;4.360;2023-04-08T09:12:16;14.50;99.90
2391;DHT22;22957;50.824;4.360;2023-04-08T09:14:41;14.70;99.90
2391;DHT22;22957;50.824;4.360;2023-04-08T09:17:09;15.10;99.90
2391;DHT22;22957;50.824;4.360;2023-04-08T09:19:34;15.50;99.90
2391;DHT22;22957;50.824;4.360;2023-04-08T09:22:08;14.40;99.90
2391;DHT22;22957;50.824;4.360;2023-04-08T09:24:36;12.50;99.90
2391;DHT22;22957;50.824;4.360;2023-04-08T09:27:05;12.00;99.90
2391;DHT22;22957;50.824;4.360;2023-04-08T09:29:31;12.10;99.90
2391;DHT22;22957;50.824;4.360;2023-04-08T09:31:59;13.20;99.90
2391;DHT22;22957;50.824;4.360;2023-04-08T09:34:27;13.90;99.90
2391;DHT22;22957;50.824;4.360;2023-04-08T09:36:54;14.50;99.90
2391;DHT22;22957;50.824;4.360;2023-04-08T09:39:20;15.00;99.90
2391;DHT22;22957;50.824;4.360;2023-04-08T09:41:49;15.00;99.90
2391;DHT22;22957;50.824;4.360;2023-04-08T09:44:18;14.90;99.90
2391;DHT22;22957;50.824;4.360;2023-04-08T09:47:19;14.60;99.90
2391;DHT22;22957;50.824;4.360;2023-04-08T09:49:52;13.50;99.90
2391;DHT22;22957;50.824;4.360;2023-04-08T09:52:24;13.80;99.90
2391;DHT22;22957;50.824;4.360;2023-04-08T09:55:01;14.30;99.90
2391;DHT22;22957;50.824;4.360;2023-04-08T09:57:57;14.10;99.90
2391;DHT22;22957;50.824;4.360;2023-04-08T10:00:41;14.30;99.90
2391;DHT22;22957;50.824;4.360;2023-04-08T10:03:39;14.90;99.90
2391;DHT22;22957;50.824;4.360;2023-04-08T10:06:05;14.60;99.90
2391;DHT22;22957;50.824;4.360;2023-04-08T10:08:32;15.00;99.90
2391;DHT22;22957;50.824;4.360;2023-04-08T10:10:59;13.80;99.90
2391;DHT22;22957;50.824;4.360;2023-04-08T10:13:26;14.60;99.90
2391;DHT22;22957;50.824;4.360;2023-04-08T10:18:41;13.50;99.90
2391;DHT22;22957;50.824;4.360;2023-04-08T10:21:34;14.20;99.90
2391;DHT22;22957;50.824;4.360;2023-04-08T10:24:02;14.90;99.90
2391;DHT22;22957;50.824;4.360;2023-04-08T10:26:36;15.30;99.90
2391;DHT22;22957;50.824;4.360;2023-04-08T10:31:46;17.90;99.90
2391;DHT22;22957;50.824;4.360;2023-04-08T10:34:24;18.10;99.90
2391;DHT22;22957;50.824;4.360;2023-04-08T10:36:52;17.10;99.90
2391;DHT22;22957;50.824;4.360;2023-04-08T10:39:19;17.50;99.90
2391;DHT22;22957;50.824;4.360;2023-04-08T10:41:49;17.80;99.90
2391;DHT22;22957;50.824;4.360;2023-04-08T10:46:45;18.20;99.90
2391;DHT22;22957;50.824;4.360;2023-04-08T10:49:13;18.00;99.90
2391;DHT22;22957;50.824;4.360;2023-04-08T10:51:39;17.90;99.90
2391;DHT22;22957;50.824;4.360;2023-04-08T10:54:07;18.00;99.90
2391;DHT22;22957;50.824;4.360;2023-04-08T10:56:36;18.00;99.90
2391;DHT22;22957;50.824;4.360;2023-04-08T10:59:08;17.70;99.90
2391;DHT22;22957;50.824;4.360;2023-04-08T11:01:43;15.80;99.90
2391;DHT22;22957;50.824;4.360;2023-04-08T11:04:19;14.70;99.90
2391;DHT22;22957;50.824;4.360;2023-04-08T11:06:48;15.30;99.90
2391;DHT22;22957;50.824;4.360;2023-04-08T11:09:14;15.10;99.90
2391;DHT22;22957;50.824;4.360;2023-04-08T11:11:42;15.20;99.90
2391;DHT22;22957;50.824;4.360;2023-04-08T11:14:08;13.50;99.90
2391;DHT22;22957;50.824;4.360;2023-04-08T11:16:36;15.00;99.90
2391;DHT22;22957;50.824;4.360;2023-04-08T11:19:03;14.20;99.90
2391;DHT22;22957;50.824;4.360;2023-04-08T11:21:37;14.10;99.90
2391;DHT22;22957;50.824;4.360;2023-04-08T11:24:10;13.60;99.90
2391;DHT22;22957;50.824;4.360;2023-04-08T11:26:39;13.50;99.90
2391;DHT22;22957;50.824;4.360;2023-04-08T11:29:05;13.50;99.90
2391;DHT22;22957;50.824;4.360;2023-04-08T11:31:39;15.00;99.90
2391;DHT22;22957;50.824;4.360;2023-04-08T11:34:06;15.00;99.90
2391;DHT22;22957;50.824;4.360;2023-04-08T11:36:32;14.90;99.90
2391;DHT22;22957;50.824;4.360;2023-04-08T11:38:59;15.80;99.90
2391;DHT22;22957;50.824;4.360;2023-04-08T11:41:35;16.00;99.90
2391;DHT22;22957;50.824;4.360;2023-04-08T11:44:00;17.20;99.90
2391;DHT22;22957;50.824;4.360;2023-04-08T11:46:27;17.40;99.90
2391;DHT22;22957;50.824;4.360;2023-04-08T11:49:07;16.80;99.90
2391;DHT22;22957;50.824;4.360;2023-04-08T11:51:56;16.90;99.90
2391;DHT22;22957;50.824;4.360;2023-04-08T11:56:54;16.60;99.90
2391;DHT22;22957;50.824;4.360;2023-04-08T11:59:26;15.30;99.90
2391;DHT22;22957;50.824;4.360;2023-04-08T12:01:52;14.50;99.90
2391;DHT22;22957;50.824;4.360;2023-04-08T12:04:18;14.50;99.90
2391;DHT22;22957;50.824;4.360;2023-04-08T12:06:44;15.10;99.90
2391;DHT22;22957;50.824;4.360;2023-04-08T12:09:12;14.00;99.90
2391;DHT22;22957;50.824;4.360;2023-04-08T12:11:41;15.20;99.90
2391;DHT22;22957;50.824;4.360;2023-04-08T12:14:07;16.90;99.90
2391;DHT22;22957;50.824;4.360;2023-04-08T12:16:34;16.60;99.90
2391;DHT22;22957;50.824;4.360;2023-04-08T12:18:59;17.60;99.90
2391;DHT22;22957;50.824;4.360;2023-04-08T12:21:26;17.40;99.90
2391;DHT22;22957;50.824;4.360;2023-04-08T12:23:52;15.90;99.90
2391;DHT22;22957;50.824;4.360;2023-04-08T12:26:18;16.10;99.90
2391;DHT22;22957;50.824;4.360;2023-04-08T12:28:44;16.60;99.90
2391;DHT22;22957;50.824;4.360;2023-04-08T12:31:12;17.00;99.90
2391;DHT22;22957;50.824;4.360;2023-04-08T12:33:38;16.90;99.90
2391;DHT22;22957;50.824;4.360;2023-04-08T12:36:04;17.10;99.90
2391;DHT22;22957;50.824;4.360;2023-04-08T12:38:29;17.30;99.90
2391;DHT22;22957;50.824;4.360;2023-04-08T12:40:57;17.40;99.90
2391;DHT22;22957;50.824;4.360;2023-04-08T12:43:22;17.10;99.90
2391;DHT22;22957;50.824;4.360;2023-04-08T12:45:48;17.50;99.90
2391;DHT22;22957;50.824;4.360;2023-04-08T12:48:16;17.70;99.90
2391;DHT22;22957;50.824;4.360;2023-04-08T12:50:42;18.40;99.90
2391;DHT22;22957;50.824;4.360;2023-04-08T12:53:07;15.50;99.90
2391;DHT22;22957;50.824;4.360;2023-04-08T12:55:34;16.60;99.90
2391;DHT22;22957;50.824;4.360;2023-04-08T12:58:02;16.70;99.90
2391;DHT22;22957;50.824;4.360;2023-04-08T13:00:30;18.00;99.90
2391;DHT22;22957;50.824;4.360;2023-04-08T13:02:55;18.00;99.90
2391;DHT22;22957;50.824;4.360;2023-04-08T13:05:21;15.70;99.90
2391;DHT22;22957;50.824;4.360;2023-04-08T13:07:47;14.90;99.90
2391;DHT22;22957;50.824;4.360;2023-04-08T13:10:13;15.40;99.90
2391;DHT22;22957;50.824;4.360;2023-04-08T13:12:39;15.10;99.90
2391;DHT22;22957;50.824;4.360;2023-04-08T13:15:06;15.90;99.90
2391;DHT22;22957;50.824;4.360;2023-04-08T13:17:32;17.20;99.90
2391;DHT22;22957;50.824;4.360;2023-04-08T13:19:59;16.70;99.90
2391;DHT22;22957;50.824;4.360;2023-04-08T13:22:25;17.20;99.90
2391;DHT22;22957;50.824;4.360;2023-04-08T13:24:50;17.40;99.90
2391;DHT22;22957;50.824;4.360;2023-04-08T13:27:16;17.60;99.90
2391;DHT22;22957;50.824;4.360;2023-04-08T13:29:42;16.30;99.90
2391;DHT22;22957;50.824;4.360;2023-04-08T13:32:09;15.40;99.90
2391;DHT22;22957;50.824;4.360;2023-04-08T13:34:35;16.60;99.90
2391;DHT22;22957;50.824;4.360;2023-04-08T13:37:00;17.00;99.90
2391;DHT22;22957;50.824;4.360;2023-04-08T13:39:27;17.30;99.90
2391;DHT22;22957;50.824;4.360;2023-04-08T13:41:54;18.70;99.90
2391;DHT22;22957;50.824;4.360;2023-04-08T13:44:22;18.90;99.90
2391;DHT22;22957;50.824;4.360;2023-04-08T13:46:47;16.70;99.90
2391;DHT22;22957;50.824;4.360;2023-04-08T13:49:13;14.60;99.90
2391;DHT22;22957;50.824;4.360;2023-04-08T13:51:40;14.70;99.90
2391;DHT22;22957;50.824;4.360;2023-04-08T13:54:06;14.80;99.90
2391;DHT22;22957;50.824;4.360;2023-04-08T13:56:31;16.40;99.90
2391;DHT22;22957;50.824;4.360;2023-04-08T13:58:57;15.90;99.90
2391;DHT22;22957;50.824;4.360;2023-04-08T14:01:22;16.50;99.90
2391;DHT22;22957;50.824;4.360;2023-04-08T14:03:48;17.50;99.90
2391;DHT22;22957;50.824;4.360;2023-04-08T14:06:15;18.10;99.90
2391;DHT22;22957;50.824;4.360;2023-04-08T14:08:41;19.10;99.90
2391;DHT22;22957;50.824;4.360;2023-04-08T14:11:08;18.60;99.90
2391;DHT22;22957;50.824;4.360;2023-04-08T14:13:33;18.60;99.90
2391;DHT22;22957;50.824;4.360;2023-04-08T14:16:01;18.30;99.90
2391;DHT22;22957;50.824;4.360;2023-04-08T14:18:27;17.70;99.90
2391;DHT22;22957;50.824;4.360;2023-04-08T14:20:53;17.80;99.90
2391;DHT22;22957;50.824;4.360;2023-04-08T14:23:19;17.70;99.90
2391;DHT22;22957;50.824;4.360;2023-04-08T14:25:46;16.70;99.90
2391;DHT22;22957;50.824;4.360;2023-04-08T14:28:11;18.00;99.90
2391;DHT22;22957;50.824;4.360;2023-04-08T14:30:37;17.60;99.90
2391;DHT22;22957;50.824;4.360;2023-04-08T14:33:03;18.70;99.90
2391;DHT22;22957;50.824;4.360;2023-04-08T14:35:30;18.10;99.90
2391;DHT22;22957;50.824;4.360;2023-04-08T14:37:55;18.80;99.90
2391;DHT22;22957;50.824;4.360;2023-04-08T14:40:22;19.10;99.90
2391;DHT22;22957;50.824;4.360;2023-04-08T14:42:48;18.60;99.90
2391;DHT22;22957;50.824;4.360;2023-04-08T14:45:15;18.30;99.90
2391;DHT22;22957;50.824;4.360;2023-04-08T14:47:40;17.90;99.90
2391;DHT22;22957;50.824;4.360;2023-04-08T14:50:08;17.80;99.90
2391;DHT22;22957;50.824;4.360;2023-04-08T14:52:33;18.70;99.90
2391;DHT22;22957;50.824;4.360;2023-04-08T14:54:59;18.10;99.90
2391;DHT22;22957;50.824;4.360;2023-04-08T14:57:25;17.40;99.90
2391;DHT22;22957;50.824;4.360;2023-04-08T14:59:53;16.00;99.90
2391;DHT22;22957;50.824;4.360;2023-04-08T15:02:20;16.70;99.90
2391;DHT22;22957;50.824;4.360;2023-04-08T15:04:45;16.50;99.90
2391;DHT22;22957;50.824;4.360;2023-04-08T15:07:11;16.30;99.90
2391;DHT22;22957;50.824;4.360;2023-04-08T15:09:37;17.10;99.90
2391;DHT22;22957;50.824;4.360;2023-04-08T15:12:04;17.30;99.90
2391;DHT22;22957;50.824;4.360;2023-04-08T15:14:30;17.90;99.90
2391;DHT22;22957;50.824;4.360;2023-04-08T15:16:55;17.50;99.90
2391;DHT22;22957;50.824;4.360;2023-04-08T15:19:21;17.90;99.90
2391;DHT22;22957;50.824;4.360;2023-04-08T15:21:46;17.50;99.90
2391;DHT22;22957;50.824;4.360;2023-04-08T15:24:12;16.40;99.90
2391;DHT22;22957;50.824;4.360;2023-04-08T15:26:39;17.10;99.90
2391;DHT22;22957;50.824;4.360;2023-04-08T15:29:06;17.50;99.90
2391;DHT22;22957;50.824;4.360;2023-04-08T15:31:33;16.00;99.90
2391;DHT22;22957;50.824;4.360;2023-04-08T15:34:00;14.70;99.90
2391;DHT22;22957;50.824;4.360;2023-04-08T15:36:28;14.60;99.90
2391;DHT22;22957;50.824;4.360;2023-04-08T15:38:54;14.60;99.90
2391;DHT22;22957;50.824;4.360;2023-04-08T15:41:20;15.60;99.90
2391;DHT22;22957;50.824;4.360;2023-04-08T15:43:46;14.70;99.90
2391;DHT22;22957;50.824;4.360;2023-04-08T15:46:18;14.60;99.90
2391;DHT22;22957;50.824;4.360;2023-04-08T15:48:43;15.70;99.90
2391;DHT22;22957;50.824;4.360;2023-04-08T15:51:09;16.40;99.90
2391;DHT22;22957;50.824;4.360;2023-04-08T15:53:40;16.50;99.90
2391;DHT22;22957;50.824;4.360;2023-04-08T15:56:16;16.80;99.90
2391;DHT22;22957;50.824;4.360;2023-04-08T15:58:43;15.90;99.90